Time;durP1;ratioP1;P1;durP2;ratioP2;P2;SDS_P1;SDS_P2;PMS_P1;PMS_P2;Temp;Humidity;BMP_temperature;BMP_pressure;BME280_temperature;BME280_humidity;BME280_pressure;Samples;Min_cycle;Max_cycle;Signal;HPM_P1;HPM_P2
2023/04/12 00:01:52;;;;;;;8.60;8.20;;;11.20;19.60;;;;;;5004451;28;20412;-76
2023/04/12 00:04:21;;;;;;;7.70;7.20;;;11.10;19.70;;;;;;5004519;28;20209;-80
2023/04/12 00:06:47;;;;;;;8.33;7.87;;;11.20;20.40;;;;;;5003853;28;20193;-77
2023/04/12 00:09:13;;;;;;;9.63;8.20;;;11.20;20.10;;;;;;5001629;28;20487;-77
2023/04/12 00:11:38;;;;;;;8.10;7.73;;;11.20;20.00;;;;;;5003748;28;20939;-77
2023/04/12 00:14:04;;;;;;;8.10;7.70;;;11.20;20.10;;;;;;5004440;28;20412;-78
2023/04/12 00:16:30;;;;;;;8.57;8.07;;;11.20;20.40;;;;;;5005335;28;20177;-77
2023/04/12 00:18:56;;;;;;;7.70;7.30;;;11.10;21.30;;;;;;5004984;28;20212;-77
2023/04/12 00:21:22;;;;;;;7.83;7.40;;;11.00;21.30;;;;;;5005308;28;20548;-76
2023/04/12 00:23:48;;;;;;;8.30;7.70;;;11.00;21.80;;;;;;5003690;28;20496;-76
2023/04/12 00:26:14;;;;;;;7.67;7.00;;;10.90;21.80;;;;;;5004715;28;20965;-77
2023/04/12 00:28:41;;;;;;;8.57;8.00;;;10.90;22.40;;;;;;5003062;28;20189;-77
2023/04/12 00:31:07;;;;;;;8.30;7.80;;;11.00;23.10;;;;;;5003283;28;20444;-77
2023/04/12 00:33:33;;;;;;;8.43;7.90;;;11.00;22.90;;;;;;5004345;28;20952;-80
2023/04/12 00:35:59;;;;;;;9.23;8.33;;;10.90;25.00;;;;;;5004067;28;20540;-76
2023/04/12 00:38:25;;;;;;;9.40;8.70;;;10.90;24.60;;;;;;5005050;28;20423;-77
2023/04/12 00:40:51;;;;;;;8.63;8.20;;;11.00;27.10;;;;;;5005787;28;20193;-76
2023/04/12 00:43:19;;;;;;;9.73;9.20;;;10.70;26.90;;;;;;5002346;28;20683;-77
2023/04/12 00:45:45;;;;;;;10.57;9.67;;;10.70;28.60;;;;;;5003397;28;21013;-77
2023/04/12 00:48:11;;;;;;;10.77;9.70;;;10.60;29.90;;;;;;5003510;28;20448;-79
2023/04/12 00:50:43;;;;;;;9.83;9.33;;;10.50;31.90;;;;;;5004109;28;20440;-78
2023/04/12 00:53:12;;;;;;;10.17;9.23;;;10.40;32.70;;;;;;5002373;28;20640;-76
2023/04/12 00:55:40;;;;;;;10.10;9.50;;;10.40;33.70;;;;;;5006135;28;20415;-76
2023/04/12 00:58:05;;;;;;;10.50;9.83;;;10.30;32.90;;;;;;5002389;28;20461;-78
2023/04/12 01:00:32;;;;;;;11.50;10.73;;;10.30;34.40;;;;;;5005202;28;20428;-76
2023/04/12 01:03:01;;;;;;;11.33;10.60;;;10.20;36.10;;;;;;5004052;28;20323;-77
2023/04/12 01:05:28;;;;;;;11.50;10.70;;;10.20;36.20;;;;;;5003144;28;20911;-77
2023/04/12 01:07:59;;;;;;;10.37;9.87;;;10.10;36.60;;;;;;5001662;28;20774;-78
2023/04/12 01:10:47;;;;;;;11.20;10.50;;;10.10;37.50;;;;;;5002768;28;20475;-77
2023/04/12 01:13:26;;;;;;;10.87;10.27;;;10.20;37.60;;;;;;5003251;28;20470;-76
2023/04/12 01:16:30;;;;;;;10.80;10.40;;;10.10;37.20;;;;;;5000382;28;20503;-76
2023/04/12 01:19:02;;;;;;;11.00;10.43;;;10.10;37.60;;;;;;4961528;28;20542;-76
2023/04/12 01:21:43;;;;;;;10.80;10.23;;;10.00;38.10;;;;;;4997206;28;20432;-76
2023/04/12 01:24:24;;;;;;;10.83;10.23;;;9.90;40.00;;;;;;5001334;28;20471;-78
2023/04/12 01:26:50;;;;;;;10.97;10.30;;;9.90;41.00;;;;;;5002314;28;20411;-77
2023/04/12 01:29:20;;;;;;;10.90;10.03;;;9.90;40.70;;;;;;4999836;28;20451;-77
2023/04/12 01:31:59;;;;;;;11.60;10.80;;;9.90;41.10;;;;;;4999648;28;20926;-77
2023/04/12 01:34:27;;;;;;;12.20;11.60;;;9.70;41.50;;;;;;5000881;28;20523;-76
2023/04/12 01:36:54;;;;;;;11.03;10.37;;;9.60;42.20;;;;;;5001529;28;20500;-76
2023/04/12 01:39:20;;;;;;;11.47;10.87;;;9.50;42.10;;;;;;5000104;28;20470;-77
2023/04/12 01:41:47;;;;;;;11.33;10.63;;;9.50;43.10;;;;;;5000560;28;20444;-77
2023/04/12 01:44:17;;;;;;;10.80;10.20;;;9.60;44.90;;;;;;5001545;28;20974;-77
2023/04/12 01:46:47;;;;;;;11.03;10.50;;;9.70;44.10;;;;;;5001176;28;20435;-77
2023/04/12 01:49:14;;;;;;;11.43;10.60;;;9.70;43.80;;;;;;5001628;28;20501;-79
2023/04/12 01:52:08;;;;;;;11.07;10.47;;;9.60;44.70;;;;;;5001599;28;20765;-77
2023/04/12 01:54:40;;;;;;;11.57;10.77;;;9.70;44.60;;;;;;5000772;28;20827;-77
2023/04/12 01:57:07;;;;;;;11.07;10.47;;;9.80;44.80;;;;;;5000945;28;20438;-78
2023/04/12 01:59:40;;;;;;;11.43;10.87;;;9.60;43.90;;;;;;5002011;28;20428;-76
2023/04/12 02:02:06;;;;;;;10.60;10.10;;;9.60;44.70;;;;;;4999495;28;20748;-77
2023/04/12 02:04:34;;;;;;;11.50;11.00;;;9.60;45.40;;;;;;5001927;28;20887;-78
2023/04/12 02:07:00;;;;;;;11.63;10.97;;;9.50;46.10;;;;;;5001858;28;20415;-76
2023/04/12 02:09:26;;;;;;;10.73;10.23;;;9.50;46.80;;;;;;5001730;28;20934;-76
2023/04/12 02:11:51;;;;;;;11.17;10.67;;;9.60;46.70;;;;;;5001982;28;20482;-77
2023/04/12 02:14:18;;;;;;;11.50;10.53;;;9.60;46.70;;;;;;4998703;28;20915;-77
2023/04/12 02:16:44;;;;;;;10.93;10.43;;;9.70;46.90;;;;;;4999842;28;20269;-77
2023/04/12 02:19:13;;;;;;;11.80;11.20;;;9.70;46.20;;;;;;4997521;28;20539;-77
2023/04/12 02:21:43;;;;;;;11.70;11.00;;;9.60;46.90;;;;;;4998503;28;20426;-76
2023/04/12 02:24:10;;;;;;;11.73;10.83;;;9.50;46.70;;;;;;4996357;28;20563;-77
2023/04/12 02:26:37;;;;;;;12.30;11.60;;;9.30;47.40;;;;;;5001890;28;20412;-77
2023/04/12 02:29:06;;;;;;;11.67;10.87;;;9.30;48.70;;;;;;4998718;28;20838;-77
2023/04/12 02:31:33;;;;;;;10.80;10.10;;;9.30;48.50;;;;;;4999400;28;20415;-75
2023/04/12 02:33:59;;;;;;;10.50;10.10;;;9.30;49.60;;;;;;4997381;28;20486;-78
2023/04/12 02:36:24;;;;;;;10.70;10.00;;;9.30;49.20;;;;;;4997823;28;20424;-75
2023/04/12 02:38:50;;;;;;;11.10;10.70;;;9.30;49.30;;;;;;4996989;28;20245;-75
2023/04/12 02:41:20;;;;;;;11.37;10.37;;;9.40;49.90;;;;;;5000163;28;20188;-78
2023/04/12 02:43:46;;;;;;;11.23;10.63;;;9.30;50.30;;;;;;5003371;28;20495;-77
2023/04/12 02:46:21;;;;;;;10.63;10.13;;;9.40;50.20;;;;;;5001651;28;20447;-77
2023/04/12 02:48:47;;;;;;;10.67;10.07;;;9.50;49.40;;;;;;5003768;28;20193;-76
2023/04/12 02:51:13;;;;;;;10.87;10.37;;;9.50;48.70;;;;;;5000968;28;20408;-77
2023/04/12 02:53:39;;;;;;;10.67;10.10;;;9.50;49.60;;;;;;5000039;28;20754;-77
2023/04/12 02:56:05;;;;;;;10.30;9.90;;;9.50;49.60;;;;;;5001915;28;20264;-76
2023/04/12 02:58:32;;;;;;;10.90;10.40;;;9.40;50.00;;;;;;5002213;28;20189;-80
2023/04/12 03:00:58;;;;;;;10.07;9.60;;;9.30;50.30;;;;;;5000913;28;20942;-78
2023/04/12 03:03:24;;;;;;;11.10;10.40;;;9.40;50.20;;;;;;5002189;28;20463;-77
2023/04/12 03:05:51;;;;;;;10.70;10.13;;;9.40;50.50;;;;;;4999818;28;20976;-77
2023/04/12 03:08:17;;;;;;;10.43;9.90;;;9.50;51.40;;;;;;5001473;28;20930;-76
2023/04/12 03:10:43;;;;;;;10.47;9.73;;;9.60;50.40;;;;;;5004043;28;20426;-77
2023/04/12 03:13:10;;;;;;;9.90;9.50;;;9.70;49.70;;;;;;5003631;28;20494;-78
2023/04/12 03:15:35;;;;;;;10.37;9.87;;;9.80;49.90;;;;;;5002724;28;20243;-77
2023/04/12 03:18:01;;;;;;;11.40;10.53;;;9.90;49.10;;;;;;5006190;28;20432;-78
2023/04/12 03:20:27;;;;;;;11.20;10.60;;;10.00;47.90;;;;;;5004197;28;20668;-78
2023/04/12 03:22:53;;;;;;;10.47;10.03;;;10.20;47.50;;;;;;5002799;28;20237;-78
2023/04/12 03:25:18;;;;;;;11.77;11.03;;;10.10;46.90;;;;;;5004755;28;20722;-77
2023/04/12 03:27:44;;;;;;;11.40;10.90;;;10.20;47.70;;;;;;5005041;28;20484;-78
2023/04/12 03:30:10;;;;;;;12.03;11.33;;;10.20;45.90;;;;;;5011075;28;20181;-78
2023/04/12 03:32:40;;;;;;;13.47;12.37;;;10.10;46.20;;;;;;5025685;28;20446;-81
2023/04/12 03:35:07;;;;;;;12.57;11.87;;;10.20;46.40;;;;;;5025901;28;20416;-81
2023/04/12 03:37:33;;;;;;;11.90;11.40;;;10.20;46.20;;;;;;5025897;28;20442;-77
2023/04/12 03:39:59;;;;;;;12.23;11.63;;;10.30;46.00;;;;;;5026233;28;20490;-80
2023/04/12 03:42:26;;;;;;;12.10;11.40;;;10.50;45.80;;;;;;5028471;28;20421;-79
2023/04/12 03:44:51;;;;;;;11.20;10.60;;;10.40;45.40;;;;;;5022549;28;20177;-77
2023/04/12 03:47:18;;;;;;;11.47;10.97;;;10.30;44.90;;;;;;5005631;28;20422;-76
2023/04/12 03:49:43;;;;;;;11.60;10.80;;;10.30;44.70;;;;;;5005624;28;20224;-77
2023/04/12 03:52:09;;;;;;;10.80;10.30;;;10.30;45.30;;;;;;5006741;28;20412;-77
2023/04/12 03:54:36;;;;;;;11.70;11.10;;;10.40;45.30;;;;;;5005707;28;20220;-77
2023/04/12 03:57:01;;;;;;;11.30;10.70;;;10.60;44.80;;;;;;5008453;28;20181;-77
2023/04/12 03:59:28;;;;;;;11.73;10.93;;;10.60;43.70;;;;;;5008353;28;20436;-77
2023/04/12 04:01:54;;;;;;;10.90;10.40;;;10.50;44.50;;;;;;5010276;28;20207;-77
2023/04/12 04:04:21;;;;;;;10.87;10.37;;;10.50;44.80;;;;;;5009773;28;20830;-77
2023/04/12 04:06:47;;;;;;;11.03;10.50;;;10.50;44.10;;;;;;5004785;28;20511;-77
2023/04/12 04:09:13;;;;;;;12.80;11.90;;;10.50;44.00;;;;;;5004385;28;20455;-76
2023/04/12 04:11:39;;;;;;;11.50;10.90;;;10.50;44.80;;;;;;5008344;28;20420;-77
2023/04/12 04:14:04;;;;;;;12.07;11.47;;;10.50;44.50;;;;;;5013025;28;20563;-79
2023/04/12 04:16:30;;;;;;;12.80;12.13;;;10.40;45.10;;;;;;5012556;28;20173;-77
2023/04/12 04:18:56;;;;;;;11.07;10.57;;;10.20;45.30;;;;;;5013036;28;20446;-76
2023/04/12 04:21:22;;;;;;;12.80;12.10;;;10.30;45.80;;;;;;5011411;28;20185;-77
2023/04/12 04:23:50;;;;;;;11.33;10.83;;;10.20;46.30;;;;;;5011506;28;20563;-76
2023/04/12 04:26:16;;;;;;;11.30;10.90;;;10.20;46.50;;;;;;5013585;28;20412;-76
2023/04/12 04:28:43;;;;;;;11.70;11.20;;;10.40;46.70;;;;;;5013981;28;20447;-75
2023/04/12 04:31:10;;;;;;;11.03;10.43;;;10.40;46.70;;;;;;5013641;28;20471;-76
2023/04/12 04:33:36;;;;;;;12.47;11.77;;;10.50;47.70;;;;;;5013151;28;20470;-76
2023/04/12 04:36:06;;;;;;;11.53;10.93;;;10.60;45.80;;;;;;5011648;28;20416;-76
2023/04/12 04:38:32;;;;;;;11.07;10.57;;;10.50;45.60;;;;;;5015031;28;20511;-77
2023/04/12 04:41:03;;;;;;;11.83;11.13;;;10.50;45.20;;;;;;5013303;28;20508;-76
2023/04/12 04:43:30;;;;;;;12.33;11.73;;;10.60;45.80;;;;;;5013260;28;20463;-78
2023/04/12 04:45:56;;;;;;;11.90;11.30;;;10.70;44.50;;;;;;5012489;28;20416;-76
2023/04/12 04:48:23;;;;;;;10.97;10.50;;;10.60;45.30;;;;;;5012130;28;20445;-76
2023/04/12 04:50:50;;;;;;;11.37;10.57;;;10.70;45.20;;;;;;5011549;28;20424;-76
2023/04/12 04:53:18;;;;;;;11.13;10.60;;;10.70;45.00;;;;;;5010622;28;20792;-77
2023/04/12 04:55:43;;;;;;;11.73;11.23;;;10.60;45.10;;;;;;5013672;28;20507;-78
2023/04/12 04:58:09;;;;;;;11.17;10.67;;;10.50;45.10;;;;;;5013655;28;20994;-78
2023/04/12 05:00:35;;;;;;;12.03;11.53;;;10.50;45.10;;;;;;5011380;28;20201;-76
2023/04/12 05:03:01;;;;;;;11.87;11.33;;;10.50;45.40;;;;;;5009983;28;20471;-77
2023/04/12 05:05:29;;;;;;;12.10;11.50;;;10.40;44.90;;;;;;5013071;28;20645;-76
2023/04/12 05:07:55;;;;;;;12.07;11.60;;;10.40;45.60;;;;;;5012148;28;20428;-76
2023/04/12 05:10:21;;;;;;;11.83;11.43;;;10.40;46.30;;;;;;5013460;28;20431;-76
2023/04/12 05:12:47;;;;;;;12.50;11.80;;;10.40;45.30;;;;;;5012085;28;20435;-77
2023/04/12 05:15:12;;;;;;;11.70;10.90;;;10.50;46.90;;;;;;5013246;28;20177;-77
2023/04/12 05:17:38;;;;;;;10.50;10.00;;;10.60;46.00;;;;;;5016261;28;20412;-78
2023/04/12 05:20:06;;;;;;;11.57;11.07;;;10.70;45.60;;;;;;5013304;28;20212;-77
2023/04/12 05:22:32;;;;;;;11.67;11.17;;;10.70;46.50;;;;;;5012153;28;20830;-76
2023/04/12 05:24:58;;;;;;;17.90;16.70;;;10.80;46.70;;;;;;5012135;28;20829;-76
2023/04/12 05:27:26;;;;;;;14.87;14.07;;;10.80;45.30;;;;;;5011503;28;20417;-77
2023/04/12 05:29:52;;;;;;;11.07;10.53;;;10.80;45.60;;;;;;5011546;28;20194;-77
2023/04/12 05:32:18;;;;;;;24.00;21.70;;;10.70;45.40;;;;;;5010016;28;20420;-77
2023/04/12 05:34:43;;;;;;;11.90;11.40;;;10.70;45.60;;;;;;5011455;28;20796;-75
2023/04/12 05:37:09;;;;;;;12.37;11.67;;;10.60;45.00;;;;;;5012399;28;20177;-78
2023/04/12 05:39:35;;;;;;;11.37;10.87;;;10.70;45.20;;;;;;5011480;28;20632;-77
2023/04/12 05:42:00;;;;;;;12.13;11.53;;;10.70;45.20;;;;;;5011072;28;20744;-76
2023/04/12 05:44:26;;;;;;;11.60;11.10;;;10.70;45.10;;;;;;5008927;28;20205;-75
2023/04/12 05:46:51;;;;;;;14.40;13.60;;;10.70;45.50;;;;;;5010881;28;20184;-76
2023/04/12 05:49:17;;;;;;;11.87;11.37;;;10.60;46.40;;;;;;5009804;28;20189;-75
2023/04/12 05:51:43;;;;;;;12.00;11.30;;;10.50;46.30;;;;;;5009493;28;20180;-76
2023/04/12 05:54:09;;;;;;;12.40;11.70;;;10.50;47.00;;;;;;5016279;28;20239;-77
2023/04/12 05:56:35;;;;;;;11.90;11.40;;;10.50;47.10;;;;;;5009996;28;20243;-78
2023/04/12 05:59:01;;;;;;;11.20;10.70;;;10.60;46.30;;;;;;5010755;28;20424;-76
2023/04/12 06:01:33;;;;;;;12.33;11.83;;;10.70;46.20;;;;;;5009557;28;20181;-77
2023/04/12 06:04:01;;;;;;;12.20;11.50;;;10.90;46.10;;;;;;5011474;28;20526;-76
2023/04/12 06:06:29;;;;;;;11.70;11.20;;;11.10;44.60;;;;;;5012598;28;20470;-76
2023/04/12 06:08:59;;;;;;;10.63;10.23;;;11.00;43.80;;;;;;5010554;28;20526;-76
2023/04/12 06:11:25;;;;;;;11.20;10.70;;;11.00;44.50;;;;;;5011130;28;20418;-76
2023/04/12 06:13:50;;;;;;;10.40;10.00;;;11.00;45.00;;;;;;5012524;28;20412;-76
2023/04/12 06:16:16;;;;;;;12.13;11.63;;;10.90;44.60;;;;;;5010233;28;20177;-76
2023/04/12 06:18:42;;;;;;;10.93;10.43;;;10.90;44.80;;;;;;5011638;28;21288;-75
2023/04/12 06:21:07;;;;;;;10.27;9.87;;;10.80;44.30;;;;;;5011985;28;20170;-75
2023/04/12 06:23:33;;;;;;;11.23;10.80;;;10.70;43.90;;;;;;5011143;28;20213;-74
2023/04/12 06:25:58;;;;;;;10.77;10.27;;;10.80;44.40;;;;;;5012287;28;20602;-75
2023/04/12 06:28:24;;;;;;;11.23;10.63;;;10.70;44.30;;;;;;5012159;28;20520;-76
2023/04/12 06:30:49;;;;;;;11.20;10.60;;;10.70;44.40;;;;;;5011475;28;20413;-76
2023/04/12 06:33:15;;;;;;;11.33;10.83;;;10.60;44.70;;;;;;5011765;28;20185;-76
2023/04/12 06:35:40;;;;;;;10.77;10.27;;;10.40;45.00;;;;;;5012514;28;20177;-76
2023/04/12 06:38:06;;;;;;;11.33;10.80;;;10.50;45.90;;;;;;5011280;28;20264;-76
2023/04/12 06:40:32;;;;;;;9.80;9.30;;;10.60;46.20;;;;;;5011195;28;20216;-76
2023/04/12 06:42:57;;;;;;;10.60;10.10;;;10.60;46.00;;;;;;5009358;28;20211;-77
2023/04/12 06:45:23;;;;;;;10.30;9.83;;;10.70;45.20;;;;;;5011176;28;20180;-77
2023/04/12 06:47:48;;;;;;;11.20;10.60;;;10.50;45.40;;;;;;5007735;28;20614;-76
2023/04/12 06:50:14;;;;;;;10.50;10.00;;;10.40;45.70;;;;;;5009699;28;20193;-76
2023/04/12 06:52:40;;;;;;;11.83;11.23;;;10.40;47.00;;;;;;5009181;28;20178;-76
2023/04/12 06:55:06;;;;;;;10.43;9.83;;;10.50;47.30;;;;;;5009779;28;20280;-77
2023/04/12 06:57:32;;;;;;;10.47;10.07;;;10.50;47.10;;;;;;5010954;28;20529;-76
2023/04/12 06:59:57;;;;;;;10.33;9.93;;;10.40;47.90;;;;;;5010978;28;20562;-77
2023/04/12 07:02:23;;;;;;;10.30;9.87;;;10.40;47.80;;;;;;5010020;28;20174;-77
2023/04/12 07:04:55;;;;;;;10.47;9.97;;;10.50;48.10;;;;;;5011102;28;20174;-77
2023/04/12 07:07:21;;;;;;;10.97;10.47;;;10.50;47.80;;;;;;5009910;28;20316;-77
2023/04/12 07:09:47;;;;;;;11.00;10.10;;;10.60;47.20;;;;;;5010752;28;20527;-76
2023/04/12 07:12:12;;;;;;;10.20;9.70;;;10.60;48.30;;;;;;5010302;28;20563;-76
2023/04/12 07:14:38;;;;;;;10.57;10.10;;;10.60;47.10;;;;;;5010844;28;20571;-76
2023/04/12 07:17:04;;;;;;;10.60;10.20;;;10.60;47.50;;;;;;5009428;28;20264;-76
2023/04/12 07:19:30;;;;;;;9.77;9.30;;;10.50;46.60;;;;;;5009040;28;20581;-77
2023/04/12 07:21:56;;;;;;;11.13;10.63;;;10.50;47.50;;;;;;5010303;28;20416;-76
2023/04/12 07:24:22;;;;;;;10.27;9.87;;;10.60;48.00;;;;;;5010560;28;20205;-77
2023/04/12 07:26:47;;;;;;;11.67;11.10;;;10.60;47.30;;;;;;5010762;28;20419;-77
2023/04/12 07:29:13;;;;;;;11.37;10.93;;;10.50;48.60;;;;;;5011901;28;20190;-76
2023/04/12 07:31:39;;;;;;;10.83;10.23;;;10.40;48.90;;;;;;5012978;28;20196;-77
2023/04/12 07:34:04;;;;;;;9.13;8.83;;;10.40;49.90;;;;;;5014577;28;20204;-77
2023/04/12 07:36:30;;;;;;;9.87;9.57;;;10.40;48.70;;;;;;5014282;28;20181;-77
2023/04/12 07:38:56;;;;;;;9.87;9.37;;;10.50;48.20;;;;;;5014395;28;20304;-77
2023/04/12 07:41:22;;;;;;;8.80;8.40;;;10.40;49.00;;;;;;5013693;28;20173;-77
2023/04/12 07:43:47;;;;;;;9.33;8.93;;;10.50;49.90;;;;;;5013558;28;20197;-77
2023/04/12 07:46:13;;;;;;;8.80;8.50;;;10.40;49.10;;;;;;5014099;28;20415;-77
2023/04/12 07:48:38;;;;;;;10.07;9.57;;;10.30;47.70;;;;;;5012960;28;20169;-76
2023/04/12 07:51:04;;;;;;;8.80;8.37;;;10.40;48.80;;;;;;5013485;28;20174;-79
2023/04/12 07:53:30;;;;;;;10.03;9.57;;;10.40;49.10;;;;;;5013967;28;20178;-77
2023/04/12 07:55:56;;;;;;;9.03;8.67;;;10.50;49.50;;;;;;5012263;28;20420;-76
2023/04/12 07:58:22;;;;;;;9.80;9.40;;;10.50;48.80;;;;;;5012530;28;20165;-77
2023/04/12 08:00:48;;;;;;;8.60;8.30;;;10.50;49.10;;;;;;5013642;28;20261;-77
2023/04/12 08:03:16;;;;;;;16.83;15.50;;;10.50;48.50;;;;;;5011887;28;20538;-77
2023/04/12 08:05:43;;;;;;;9.80;9.40;;;10.60;48.80;;;;;;5013897;28;20411;-78
2023/04/12 08:08:09;;;;;;;9.43;9.10;;;10.60;48.80;;;;;;5013762;28;20423;-76
2023/04/12 08:10:36;;;;;;;9.63;9.10;;;10.60;48.10;;;;;;5012872;28;20767;-77
2023/04/12 08:13:02;;;;;;;9.60;9.20;;;10.60;48.90;;;;;;5013292;28;20466;-77
2023/04/12 08:15:27;;;;;;;8.93;8.63;;;10.60;49.10;;;;;;5012396;28;20495;-77
2023/04/12 08:17:53;;;;;;;8.90;8.50;;;10.60;49.50;;;;;;5012345;28;20519;-76
2023/04/12 08:20:19;;;;;;;8.33;7.97;;;10.60;49.30;;;;;;5013616;28;20620;-77
2023/04/12 08:22:45;;;;;;;8.50;8.20;;;10.60;48.50;;;;;;5012862;28;20197;-76
2023/04/12 08:25:11;;;;;;;9.03;8.57;;;10.60;48.70;;;;;;5013618;28;20169;-77
2023/04/12 08:27:40;;;;;;;9.43;9.03;;;10.60;48.50;;;;;;4998252;28;20431;-76
2023/04/12 08:30:07;;;;;;;9.73;9.23;;;10.60;48.30;;;;;;4992605;28;20508;-77
2023/04/12 08:32:33;;;;;;;9.53;8.97;;;10.70;48.80;;;;;;4992060;28;20414;-78
2023/04/12 08:34:59;;;;;;;8.90;8.40;;;10.80;48.70;;;;;;4993844;28;20916;-77
2023/04/12 08:37:25;;;;;;;9.43;9.13;;;10.80;48.90;;;;;;4993828;28;20414;-77
2023/04/12 08:39:50;;;;;;;9.30;9.00;;;10.80;49.00;;;;;;4993454;28;20198;-77
2023/04/12 08:42:16;;;;;;;8.70;8.30;;;10.70;48.50;;;;;;4992561;28;20628;-76
2023/04/12 08:44:42;;;;;;;9.07;8.67;;;10.80;49.40;;;;;;4993796;28;20235;-77
2023/04/12 08:47:09;;;;;;;10.00;9.40;;;10.80;49.20;;;;;;4993761;28;20652;-77
2023/04/12 08:49:35;;;;;;;9.73;8.20;;;10.80;49.70;;;;;;4993672;28;20421;-77
2023/04/12 08:52:06;;;;;;;8.37;8.07;;;10.80;49.20;;;;;;4993657;28;20517;-78
2023/04/12 08:54:32;;;;;;;8.50;8.20;;;10.80;50.40;;;;;;4993682;28;20419;-77
2023/04/12 08:57:00;;;;;;;8.60;8.10;;;10.80;50.00;;;;;;5008203;28;20408;-75
2023/04/12 08:59:30;;;;;;;10.10;9.20;;;10.90;50.30;;;;;;5011249;28;20515;-76
2023/04/12 09:01:57;;;;;;;9.60;9.00;;;11.00;50.40;;;;;;5012382;28;20459;-76
2023/04/12 09:04:23;;;;;;;8.97;8.47;;;11.10;49.70;;;;;;5013048;28;20503;-77
2023/04/12 09:06:49;;;;;;;9.67;9.13;;;11.10;49.70;;;;;;5011830;28;20448;-76
2023/04/12 09:09:15;;;;;;;9.60;9.13;;;11.20;49.80;;;;;;5013242;28;20471;-77
2023/04/12 09:11:41;;;;;;;13.07;12.00;;;11.20;48.90;;;;;;5012607;28;20181;-77
2023/04/12 09:14:23;;;;;;;9.13;8.73;;;11.10;48.80;;;;;;5012772;28;20187;-78
2023/04/12 09:16:50;;;;;;;9.83;9.20;;;11.20;49.00;;;;;;5012894;28;20635;-76
2023/04/12 09:19:15;;;;;;;9.20;8.70;;;11.20;49.80;;;;;;5011397;28;20467;-78
2023/04/12 09:21:54;;;;;;;8.90;8.50;;;11.20;49.80;;;;;;5012249;28;20408;-77
2023/04/12 09:24:23;;;;;;;9.57;9.03;;;11.20;49.50;;;;;;5011371;28;20254;-77
2023/04/12 09:27:00;;;;;;;9.30;8.90;;;11.20;49.30;;;;;;5011286;28;20921;-76
2023/04/12 09:29:25;;;;;;;8.80;8.50;;;11.30;50.50;;;;;;5012627;28;20432;-77
2023/04/12 09:31:57;;;;;;;9.73;9.23;;;11.30;48.70;;;;;;5012039;28;20773;-77
2023/04/12 09:34:22;;;;;;;9.30;8.70;;;11.40;50.00;;;;;;5012636;28;20174;-77
2023/04/12 09:36:48;;;;;;;9.80;9.20;;;11.40;48.50;;;;;;5012491;28;20424;-76
2023/04/12 09:39:14;;;;;;;10.30;9.70;;;11.50;49.10;;;;;;5012214;28;20587;-77
2023/04/12 09:41:40;;;;;;;9.50;8.90;;;11.60;47.80;;;;;;5010744;28;20235;-76
2023/04/12 09:44:05;;;;;;;8.73;8.30;;;11.60;48.80;;;;;;5012572;28;20987;-76
2023/04/12 09:46:32;;;;;;;9.20;8.70;;;11.60;46.80;;;;;;5012367;28;20181;-77
2023/04/12 09:48:59;;;;;;;8.80;8.50;;;11.70;47.20;;;;;;5012283;28;20694;-78
2023/04/12 09:51:27;;;;;;;9.20;8.80;;;11.70;47.70;;;;;;5010488;28;20503;-76
2023/04/12 09:53:55;;;;;;;8.50;8.00;;;11.70;48.70;;;;;;5011365;28;20408;-76
2023/04/12 09:56:21;;;;;;;8.50;7.90;;;11.80;48.90;;;;;;5012167;28;20786;-77
2023/04/12 09:58:52;;;;;;;9.40;8.80;;;11.90;48.80;;;;;;5010614;28;20436;-77
2023/04/12 10:01:19;;;;;;;8.77;8.37;;;11.90;47.10;;;;;;5011650;28;20484;-77
2023/04/12 10:03:44;;;;;;;8.83;8.43;;;12.00;47.40;;;;;;5012762;28;21039;-76
2023/04/12 10:06:11;;;;;;;9.17;8.80;;;11.90;46.10;;;;;;5001680;28;20464;-76
2023/04/12 10:08:38;;;;;;;9.30;8.80;;;12.00;47.90;;;;;;5001294;28;20723;-76
2023/04/12 10:11:04;;;;;;;9.97;9.47;;;12.00;45.40;;;;;;5010422;28;20810;-77
2023/04/12 10:13:32;;;;;;;8.40;8.00;;;12.10;46.50;;;;;;5011350;28;20444;-77
2023/04/12 10:15:59;;;;;;;9.63;9.10;;;12.10;45.70;;;;;;5012563;28;20463;-76
2023/04/12 10:18:26;;;;;;;9.53;9.03;;;12.20;46.40;;;;;;5011660;28;20409;-77
2023/04/12 10:20:52;;;;;;;8.93;8.40;;;12.30;45.70;;;;;;5011876;28;21078;-76
2023/04/12 10:23:18;;;;;;;9.50;9.00;;;12.40;44.80;;;;;;5011140;28;20448;-76
2023/04/12 10:25:47;;;;;;;9.33;8.93;;;12.40;45.40;;;;;;5010379;28;20416;-76
2023/04/12 10:28:17;;;;;;;9.77;9.23;;;12.50;45.00;;;;;;5010513;28;20405;-77
2023/04/12 10:30:44;;;;;;;9.90;9.33;;;12.50;45.10;;;;;;5012674;28;20427;-77
2023/04/12 10:33:12;;;;;;;10.07;9.53;;;12.50;44.90;;;;;;5011758;28;20427;-78
2023/04/12 10:36:09;;;;;;;14.13;13.33;;;12.60;44.40;;;;;;5013328;28;20498;-77
2023/04/12 10:38:46;;;;;;;9.87;9.37;;;12.70;46.70;;;;;;5009344;28;20420;-77
2023/04/12 10:41:18;;;;;;;9.30;8.90;;;12.80;44.50;;;;;;5010978;28;20457;-77
2023/04/12 10:43:48;;;;;;;10.87;10.10;;;12.80;43.10;;;;;;5010019;28;20456;-77
2023/04/12 10:46:38;;;;;;;9.63;9.13;;;12.90;44.20;;;;;;5011465;28;20776;-78
2023/04/12 10:49:08;;;;;;;9.50;9.10;;;13.10;43.00;;;;;;5010193;28;20844;-76
2023/04/12 10:51:34;;;;;;;10.30;9.90;;;13.20;43.00;;;;;;5009352;28;20963;-77
2023/04/12 10:54:15;;;;;;;10.83;10.23;;;13.20;41.40;;;;;;5011352;28;20412;-77
2023/04/12 10:56:45;;;;;;;10.30;9.80;;;13.20;41.90;;;;;;5010722;28;20655;-77
2023/04/12 10:59:15;;;;;;;9.70;9.37;;;13.20;40.50;;;;;;5011292;28;20436;-76
2023/04/12 11:02:01;;;;;;;10.70;10.03;;;13.10;39.60;;;;;;5010662;28;20413;-77
2023/04/12 11:04:26;;;;;;;9.47;9.00;;;13.20;40.30;;;;;;5012164;28;20833;-77
2023/04/12 11:06:52;;;;;;;9.80;9.30;;;13.20;39.20;;;;;;5018606;28;20401;-77
2023/04/12 11:09:24;;;;;;;10.30;9.80;;;13.20;39.00;;;;;;5015248;28;20339;-77
2023/04/12 11:11:55;;;;;;;10.30;9.80;;;13.30;39.50;;;;;;5015599;28;20236;-76
2023/04/12 11:14:29;;;;;;;9.70;9.30;;;13.30;38.10;;;;;;5015840;28;20396;-76
2023/04/12 11:17:07;;;;;;;9.50;9.10;;;13.50;38.70;;;;;;5014463;28;20419;-76
2023/04/12 11:19:37;;;;;;;9.87;9.47;;;13.60;39.80;;;;;;5014366;28;20459;-77
2023/04/12 11:22:05;;;;;;;9.93;9.53;;;13.60;36.80;;;;;;5015271;28;20404;-75
2023/04/12 11:24:30;;;;;;;9.67;9.27;;;13.70;38.90;;;;;;5015421;28;20456;-76
2023/04/12 11:26:58;;;;;;;10.20;9.70;;;13.70;36.70;;;;;;5029966;28;20783;-77
2023/04/12 11:29:24;;;;;;;9.87;9.57;;;13.70;37.70;;;;;;5015707;28;20200;-77
2023/04/12 11:31:50;;;;;;;9.50;9.10;;;13.70;36.00;;;;;;5015144;28;20775;-78
2023/04/12 11:34:17;;;;;;;9.00;8.70;;;13.80;36.60;;;;;;5015400;28;20499;-78
2023/04/12 11:36:44;;;;;;;10.17;9.77;;;13.80;35.90;;;;;;5015367;28;20430;-78
2023/04/12 11:39:10;;;;;;;9.80;9.40;;;13.90;36.30;;;;;;5015282;28;20452;-77
2023/04/12 11:41:36;;;;;;;9.10;8.80;;;13.90;34.10;;;;;;5013276;28;20919;-77
2023/04/12 11:44:02;;;;;;;8.63;8.23;;;13.80;34.80;;;;;;5015174;28;20671;-76
2023/04/12 11:46:33;;;;;;;8.57;8.07;;;13.90;34.30;;;;;;5015204;28;20567;-77
2023/04/12 11:48:58;;;;;;;8.30;8.00;;;13.90;33.40;;;;;;5013858;28;20275;-76
2023/04/12 11:51:25;;;;;;;8.60;8.30;;;14.00;32.80;;;;;;5014635;28;20852;-77
2023/04/12 11:53:55;;;;;;;9.97;9.27;;;14.00;33.40;;;;;;5013964;28;20177;-77
2023/04/12 11:56:21;;;;;;;9.70;9.30;;;14.00;33.20;;;;;;5014854;28;20408;-78
2023/04/12 11:58:47;;;;;;;8.57;8.27;;;14.10;33.70;;;;;;5014953;28;20440;-78
2023/04/12 12:01:17;;;;;;;8.10;7.70;;;14.20;33.40;;;;;;5014490;28;20177;-77
2023/04/12 12:03:43;;;;;;;9.17;8.87;;;14.30;32.00;;;;;;5014892;28;20201;-78
2023/04/12 12:06:09;;;;;;;9.60;9.10;;;14.20;32.20;;;;;;5013506;28;20420;-77
2023/04/12 12:08:36;;;;;;;9.87;9.37;;;14.30;32.20;;;;;;5014819;28;20412;-77
2023/04/12 12:11:01;;;;;;;9.57;9.20;;;14.20;32.00;;;;;;5014669;28;20780;-77
2023/04/12 12:13:42;;;;;;;9.03;8.53;;;14.30;32.00;;;;;;5013973;28;20487;-77
2023/04/12 12:16:07;;;;;;;10.30;9.60;;;14.30;31.90;;;;;;5013639;28;20969;-78
2023/04/12 12:18:38;;;;;;;9.40;9.00;;;14.30;30.60;;;;;;5014687;28;20420;-77
2023/04/12 12:21:08;;;;;;;9.13;8.83;;;14.40;30.50;;;;;;5014464;28;20173;-77
2023/04/12 12:23:34;;;;;;;10.87;10.37;;;14.40;31.00;;;;;;5016543;28;21001;-77
2023/04/12 12:26:02;;;;;;;9.20;8.90;;;14.50;30.00;;;;;;5015477;28;20775;-78
2023/04/12 12:28:28;;;;;;;9.37;8.97;;;14.50;29.50;;;;;;5014441;28;20408;-77
2023/04/12 12:30:57;;;;;;;10.07;9.77;;;14.50;29.90;;;;;;5015473;28;20416;-76
2023/04/12 12:33:23;;;;;;;10.00;9.60;;;14.40;29.90;;;;;;5014234;28;20174;-77
2023/04/12 12:35:56;;;;;;;9.50;9.20;;;14.50;31.00;;;;;;5014367;28;20412;-77
2023/04/12 12:38:21;;;;;;;9.53;9.23;;;14.60;30.00;;;;;;5014328;28;20934;-77
2023/04/12 12:40:47;;;;;;;9.30;9.00;;;14.60;29.80;;;;;;5013951;28;20444;-78